FVWN

Hwange National Park Airport

Hwange, Zimbabwe
METAR FVWN 180900Z 06004KT CAVOK 29/16 Q1016
Observed Flight Rules
Dec-18 @ 09:00 UTC (11 hours ago) Visual Flight Rules
Wind Visibility Clouds
60° at 4 knots 10,000+ meters
  • Clear skies
Temperatures Readings
Current 29°C / 84°F
Dewpoint 16°C / 61°F
Humidity 45%
Altimeter 30" Hg
Pressure 1016 hPa
Elevation 1077
METAR FVWN 180900Z 06004KT CAVOK 29/16 Q1016
Observed Flight Rules
Dec-18 @ 09:00 UTC
(11 hours ago)
VFR
Wind Visibility
60° at 4 knots 10,000+ meters
Clouds
  • Clear skies
Temperature Dewpoint
29°C / 84°F 16°C / 61°F
Humidity Altimeter Pressure
45% 30" Hg 1016 hPa